Time;durP1;ratioP1;P1;durP2;ratioP2;P2;SDS_P1;SDS_P2;PMS_P1;PMS_P2;Temp;Humidity;BMP_temperature;BMP_pressure;BME280_temperature;BME280_humidity;BME280_pressure;Samples;Min_cycle;Max_cycle;Signal;HPM_P1;HPM_P2
2023/09/11 00:02:26;;;;;;;;;;;;;;;21.43;73.55;98009.84;5001103;28;19972;-60
2023/09/11 00:04:54;;;;;;;;;;;;;;;21.40;73.25;98001.50;4995848;28;20499;-61
2023/09/11 00:07:21;;;;;;;;;;;;;;;21.38;73.15;97999.13;5005824;28;19925;-61
2023/09/11 00:09:49;;;;;;;;;;;;;;;21.30;73.73;98003.00;5019742;28;19929;-61
2023/09/11 00:12:18;;;;;;;;;;;;;;;21.27;73.52;97994.66;5026509;28;19929;-61
2023/09/11 00:14:47;;;;;;;;;;;;;;;21.26;73.59;98002.16;5029013;28;19971;-60
2023/09/11 00:17:15;;;;;;;;;;;;;;;21.22;73.84;98000.53;5023035;28;19933;-61
2023/09/11 00:19:43;;;;;;;;;;;;;;;21.17;73.54;97994.16;5028309;28;20314;-61
2023/09/11 00:22:10;;;;;;;;;;;;;;;21.17;73.76;97999.69;5023873;28;19925;-60
2023/09/11 00:24:38;;;;;;;;;;;;;;;21.17;73.80;97996.94;5028646;28;19925;-61
2023/09/11 00:27:06;;;;;;;;;;;;;;;21.13;73.67;97995.28;5028712;28;19937;-61
2023/09/11 00:29:34;;;;;;;;;;;;;;;21.09;73.81;97992.53;5027195;28;19940;-61
2023/09/11 00:32:03;;;;;;;;;;;;;;;21.04;73.76;97992.84;5002925;28;19971;-61
2023/09/11 00:34:31;;;;;;;;;;;;;;;21.03;73.90;97987.69;5030015;28;19925;-61
2023/09/11 00:36:59;;;;;;;;;;;;;;;21.02;73.92;97986.91;5028970;28;20004;-61
2023/09/11 00:39:26;;;;;;;;;;;;;;;20.93;74.46;97989.16;5025459;28;19956;-61
2023/09/11 00:41:54;;;;;;;;;;;;;;;20.89;74.77;97982.81;5012822;28;19925;-61
2023/09/11 00:44:22;;;;;;;;;;;;;;;20.83;74.68;97976.84;5029350;28;20270;-60
2023/09/11 00:46:50;;;;;;;;;;;;;;;20.76;74.92;97979.50;5016669;28;19929;-61
2023/09/11 00:49:20;;;;;;;;;;;;;;;20.69;75.42;97973.91;5008286;28;19932;-61
2023/09/11 00:51:50;;;;;;;;;;;;;;;20.69;75.07;97973.13;5010024;28;19925;-61
2023/09/11 00:54:18;;;;;;;;;;;;;;;20.70;75.14;97972.75;5007801;28;19925;-61
2023/09/11 00:56:46;;;;;;;;;;;;;;;20.74;75.14;97975.53;5024713;28;20012;-61
2023/09/11 00:59:14;;;;;;;;;;;;;;;20.73;74.98;97974.75;5015096;28;19929;-61
2023/09/11 01:01:42;;;;;;;;;;;;;;;20.77;74.90;97975.56;5022030;28;19925;-62
2023/09/11 01:04:10;;;;;;;;;;;;;;;20.78;74.71;97976.38;5029197;28;19937;-61
2023/09/11 01:06:39;;;;;;;;;;;;;;;20.77;74.74;97972.81;5012063;28;20440;-62
2023/09/11 01:09:08;;;;;;;;;;;;;;;20.79;74.29;97973.25;5029808;28;19936;-61
2023/09/11 01:11:36;;;;;;;;;;;;;;;20.75;74.63;97968.84;5012848;28;19929;-61
2023/09/11 01:14:04;;;;;;;;;;;;;;;20.71;74.54;97971.56;5009202;28;20018;-61
2023/09/11 01:16:34;;;;;;;;;;;;;;;20.75;74.17;97968.84;5002494;28;19983;-61
2023/09/11 01:19:02;;;;;;;;;;;;;;;20.75;74.13;97969.63;5030599;28;19987;-61
2023/09/11 01:21:33;;;;;;;;;;;;;;;20.73;74.05;97960.16;5000865;28;19959;-60
2023/09/11 01:24:09;;;;;;;;;;;;;;;20.63;74.16;97964.38;5008710;28;20319;-61
2023/09/11 01:26:47;;;;;;;;;;;;;;;20.69;73.97;97967.59;5007049;28;20371;-61
2023/09/11 01:29:16;;;;;;;;;;;;;;;20.69;73.62;97962.88;5027194;28;19979;-61
2023/09/11 01:31:44;;;;;;;;;;;;;;;20.67;73.63;97965.22;5016800;28;19933;-61
2023/09/11 01:34:12;;;;;;;;;;;;;;;20.57;73.89;97965.88;5030350;28;20022;-61
2023/09/11 01:36:40;;;;;;;;;;;;;;;20.62;73.67;97966.34;5030863;28;19925;-61
2023/09/11 01:39:07;;;;;;;;;;;;;;;20.58;73.67;97967.47;5028815;28;19936;-61
2023/09/11 01:41:36;;;;;;;;;;;;;;;20.52;73.93;97957.94;5031239;28;19929;-61
2023/09/11 01:44:05;;;;;;;;;;;;;;;20.51;73.91;97950.84;5032683;28;19951;-61
2023/09/11 01:46:34;;;;;;;;;;;;;;;20.52;73.56;97957.94;5022921;28;19937;-61
2023/09/11 01:49:02;;;;;;;;;;;;;;;20.52;73.84;97960.69;5011360;28;20409;-61
2023/09/11 01:51:30;;;;;;;;;;;;;;;20.46;73.81;97960.25;5023215;28;19933;-61
2023/09/11 01:53:57;;;;;;;;;;;;;;;20.39;74.08;97962.84;5025914;28;19925;-61
2023/09/11 01:56:27;;;;;;;;;;;;;;;20.35;74.13;97957.31;5008605;28;19925;-60
2023/09/11 01:58:56;;;;;;;;;;;;;;;20.37;74.05;97954.97;5017954;28;20294;-61
2023/09/11 02:01:23;;;;;;;;;;;;;;;20.34;74.09;97958.47;5003940;28;19929;-61
2023/09/11 02:03:52;;;;;;;;;;;;;;;20.32;74.15;97954.50;5010528;28;19930;-60
2023/09/11 02:06:20;;;;;;;;;;;;;;;20.36;74.13;97950.63;5032035;28;19932;-61
2023/09/11 02:08:48;;;;;;;;;;;;;;;20.33;73.85;97951.34;5029590;28;19933;-60
2023/09/11 02:11:17;;;;;;;;;;;;;;;20.30;73.84;97952.13;5012745;28;19983;-61
2023/09/11 02:13:45;;;;;;;;;;;;;;;20.34;73.73;97952.94;5025721;28;19925;-60
2023/09/11 02:16:13;;;;;;;;;;;;;;;20.33;73.62;97950.56;5024612;28;19924;-61
2023/09/11 02:18:41;;;;;;;;;;;;;;;20.32;73.80;97952.53;5021437;28;19936;-61
2023/09/11 02:21:10;;;;;;;;;;;;;;;20.30;73.85;97954.09;5009516;28;19925;-60
2023/09/11 02:23:38;;;;;;;;;;;;;;;20.30;73.76;97946.59;5025241;28;20220;-61
2023/09/11 02:26:06;;;;;;;;;;;;;;;20.28;73.97;97948.94;5013371;28;19925;-61
2023/09/11 02:28:33;;;;;;;;;;;;;;;20.24;73.94;97948.09;5022753;28;20379;-62
2023/09/11 02:31:01;;;;;;;;;;;;;;;20.23;74.17;97953.97;5021986;28;19979;-61
2023/09/11 02:33:30;;;;;;;;;;;;;;;20.26;73.89;97954.03;5030276;28;20382;-61
2023/09/11 02:35:58;;;;;;;;;;;;;;;20.26;74.05;97948.50;5007693;28;20655;-61
2023/09/11 02:38:27;;;;;;;;;;;;;;;20.23;74.13;97949.25;5005792;28;19926;-61
2023/09/11 02:40:55;;;;;;;;;;;;;;;20.20;74.33;97947.25;5003282;28;20661;-60
2023/09/11 02:43:35;;;;;;;;;;;;;;;20.19;74.32;97953.13;5010103;28;19925;-60
2023/09/11 02:46:03;;;;;;;;;;;;;;;20.17;74.55;97953.50;5018553;28;19929;-60
2023/09/11 02:48:31;;;;;;;;;;;;;;;20.19;74.19;97945.66;5029645;28;20483;-61
2023/09/11 02:50:59;;;;;;;;;;;;;;;20.19;74.11;97945.66;5021963;28;19933;-60
2023/09/11 02:53:29;;;;;;;;;;;;;;;20.17;74.13;97948.00;5025982;28;19925;-61
2023/09/11 02:55:56;;;;;;;;;;;;;;;20.17;74.13;97938.91;5022230;28;19935;-61
2023/09/11 02:58:24;;;;;;;;;;;;;;;20.12;74.16;97940.84;5010242;28;19926;-61
2023/09/11 03:00:52;;;;;;;;;;;;;;;20.08;74.36;97936.44;5003628;28;20302;-61
2023/09/11 03:03:20;;;;;;;;;;;;;;;20.11;74.33;97941.22;5019557;28;19934;-61
2023/09/11 03:05:54;;;;;;;;;;;;;;;20.05;74.33;97940.75;5011715;28;19931;-60
2023/09/11 03:08:23;;;;;;;;;;;;;;;20.02;74.32;97938.72;5010048;28;19929;-61
2023/09/11 03:10:55;;;;;;;;;;;;;;;19.99;74.58;97941.44;5011837;28;20574;-61
2023/09/11 03:13:22;;;;;;;;;;;;;;;19.96;74.54;97936.66;5020075;28;19937;-61
2023/09/11 03:15:50;;;;;;;;;;;;;;;19.97;74.59;97938.25;5019068;28;20008;-61
2023/09/11 03:18:18;;;;;;;;;;;;;;;19.98;74.49;97935.13;5020436;28;20342;-61
2023/09/11 03:20:46;;;;;;;;;;;;;;;19.97;74.45;97935.50;5012421;28;19929;-61
2023/09/11 03:23:14;;;;;;;;;;;;;;;19.88;74.38;97936.56;5030800;28;19934;-61
2023/09/11 03:25:45;;;;;;;;;;;;;;;19.87;74.46;97932.22;5010897;28;19929;-60
2023/09/11 03:28:15;;;;;;;;;;;;;;;19.86;74.40;97927.88;5003187;28;19925;-61
2023/09/11 03:30:43;;;;;;;;;;;;;;;19.86;74.23;97927.88;5018932;28;19925;-61
2023/09/11 03:33:11;;;;;;;;;;;;;;;19.84;74.33;97919.19;5011369;28;19951;-61
2023/09/11 03:35:39;;;;;;;;;;;;;;;19.84;74.21;97921.94;5007345;28;19929;-61
2023/09/11 03:38:06;;;;;;;;;;;;;;;19.81;74.22;97924.63;5015967;28;19988;-61
2023/09/11 03:40:34;;;;;;;;;;;;;;;19.80;74.30;97921.09;5012392;28;19975;-61
2023/09/11 03:43:03;;;;;;;;;;;;;;;19.79;74.40;97922.25;5006148;28;21799;-60
2023/09/11 03:45:32;;;;;;;;;;;;;;;19.77;74.28;97921.84;5019059;28;19969;-60
2023/09/11 03:48:00;;;;;;;;;;;;;;;19.74;74.30;97917.06;5021706;28;19933;-61
2023/09/11 03:50:29;;;;;;;;;;;;;;;19.75;74.18;97915.88;5003079;28;19979;-60
2023/09/11 03:52:57;;;;;;;;;;;;;;;19.77;74.05;97918.28;5010176;28;20007;-61
2023/09/11 03:55:25;;;;;;;;;;;;;;;19.74;73.94;97925.34;5011614;28;20398;-60
2023/09/11 03:57:52;;;;;;;;;;;;;;;19.74;73.98;97919.81;5028145;28;20256;-60
2023/09/11 04:00:20;;;;;;;;;;;;;;;19.73;73.92;97918.22;5022450;28;19932;-61
2023/09/11 04:02:49;;;;;;;;;;;;;;;19.71;73.75;97920.56;5022176;28;19956;-61
2023/09/11 04:05:17;;;;;;;;;;;;;;;19.72;73.89;97913.09;5010092;28;19972;-60
2023/09/11 04:07:45;;;;;;;;;;;;;;;19.68;73.92;97902.00;5020820;28;20337;-60
2023/09/11 04:10:13;;;;;;;;;;;;;;;19.68;73.99;97907.53;5026457;28;19925;-61
2023/09/11 04:12:41;;;;;;;;;;;;;;;19.68;73.86;97903.97;5005673;28;19925;-61
2023/09/11 04:15:09;;;;;;;;;;;;;;;19.65;73.96;97905.50;5013147;28;19945;-62
2023/09/11 04:17:36;;;;;;;;;;;;;;;19.62;73.92;97909.00;5025353;28;19929;-61
2023/09/11 04:20:07;;;;;;;;;;;;;;;19.58;74.18;97906.16;5025653;28;19975;-61
2023/09/11 04:22:35;;;;;;;;;;;;;;;19.56;74.15;97910.47;5020688;28;19926;-61
2023/09/11 04:25:02;;;;;;;;;;;;;;;19.56;74.46;97907.72;5009910;28;19984;-62
2023/09/11 04:27:30;;;;;;;;;;;;;;;19.54;74.31;97910.03;5022324;28;20233;-61
2023/09/11 04:29:59;;;;;;;;;;;;;;;19.55;74.31;97909.69;5024890;28;19925;-61
2023/09/11 04:32:27;;;;;;;;;;;;;;;19.57;74.20;97901.81;5013044;28;19921;-61
2023/09/11 04:34:55;;;;;;;;;;;;;;;19.57;74.42;97901.81;5024296;28;19932;-60
2023/09/11 04:37:24;;;;;;;;;;;;;;;19.57;74.01;97909.31;5008968;28;19925;-60
2023/09/11 04:39:52;;;;;;;;;;;;;;;19.53;74.29;97913.97;5006858;28;20020;-61
2023/09/11 04:42:20;;;;;;;;;;;;;;;19.54;74.42;97915.53;5015376;28;19999;-61
2023/09/11 04:44:48;;;;;;;;;;;;;;;19.54;74.24;97918.28;5010919;28;19932;-61
2023/09/11 04:47:16;;;;;;;;;;;;;;;19.56;74.41;97919.53;5008493;28;20003;-60
2023/09/11 04:49:44;;;;;;;;;;;;;;;19.53;74.24;97916.72;5022648;28;19931;-61
2023/09/11 04:52:11;;;;;;;;;;;;;;;19.51;74.32;97916.28;5000829;28;19933;-60
2023/09/11 04:54:41;;;;;;;;;;;;;;;19.52;74.21;97917.88;5003995;28;20283;-61
2023/09/11 04:57:09;;;;;;;;;;;;;;;19.50;74.28;97914.72;5007069;28;20443;-61
2023/09/11 04:59:36;;;;;;;;;;;;;;;19.49;74.30;97908.38;5006499;28;19934;-61
2023/09/11 05:02:06;;;;;;;;;;;;;;;19.47;74.35;97920.94;5023501;28;19967;-61
2023/09/11 05:04:34;;;;;;;;;;;;;;;19.48;74.30;97911.50;5020176;28;19940;-60
2023/09/11 05:07:03;;;;;;;;;;;;;;;19.46;74.39;97908.34;5028219;28;19933;-61
2023/09/11 05:09:31;;;;;;;;;;;;;;;19.43;74.45;97915.38;5005357;28;19953;-61
2023/09/11 05:12:00;;;;;;;;;;;;;;;19.43;74.40;97914.59;5030261;28;19931;-60
2023/09/11 05:14:28;;;;;;;;;;;;;;;19.43;74.39;97909.06;5008160;28;19933;-62
2023/09/11 05:16:56;;;;;;;;;;;;;;;19.43;74.18;97915.38;5018137;28;19925;-60
2023/09/11 05:19:24;;;;;;;;;;;;;;;19.43;74.36;97914.59;5013843;28;19929;-61
2023/09/11 05:21:55;;;;;;;;;;;;;;;19.45;74.17;97913.06;5009479;28;20301;-60
2023/09/11 05:24:22;;;;;;;;;;;;;;;19.46;73.94;97913.84;5033271;28;20417;-61
2023/09/11 05:26:53;;;;;;;;;;;;;;;19.46;73.99;97916.59;5028089;28;19929;-61
2023/09/11 05:29:22;;;;;;;;;;;;;;;19.46;74.00;97922.13;5030478;28;20336;-61
2023/09/11 05:31:50;;;;;;;;;;;;;;;19.48;74.08;97922.53;5019737;28;19929;-61
2023/09/11 05:34:18;;;;;;;;;;;;;;;19.50;74.01;97921.00;5025497;28;20341;-61
2023/09/11 05:36:46;;;;;;;;;;;;;;;19.48;73.99;97917.03;5022470;28;20306;-61
2023/09/11 05:39:14;;;;;;;;;;;;;;;19.51;74.15;97921.81;5028079;28;20434;-61
2023/09/11 05:41:42;;;;;;;;;;;;;;;19.51;74.15;97922.59;5029314;28;19948;-61
2023/09/11 05:44:09;;;;;;;;;;;;;;;19.48;74.22;97917.81;5020337;28;19932;-61
2023/09/11 05:46:38;;;;;;;;;;;;;;;19.42;74.31;97924.81;5009039;28;19929;-61
2023/09/11 05:49:07;;;;;;;;;;;;;;;19.45;74.55;97920.53;5032811;28;19929;-61
2023/09/11 05:51:34;;;;;;;;;;;;;;;19.48;74.50;97922.53;5027397;28;19929;-61
2023/09/11 05:54:02;;;;;;;;;;;;;;;19.51;74.55;97928.09;5033293;28;19935;-61
2023/09/11 05:56:34;;;;;;;;;;;;;;;19.55;74.18;97928.97;5028446;28;20441;-61
2023/09/11 05:59:02;;;;;;;;;;;;;;;19.55;74.36;97919.91;5029334;28;19933;-61
2023/09/11 06:01:30;;;;;;;;;;;;;;;19.50;74.25;97928.50;5025894;28;19929;-61
2023/09/11 06:03:59;;;;;;;;;;;;;;;19.53;74.42;97927.72;5021724;28;19926;-61
2023/09/11 06:06:27;;;;;;;;;;;;;;;19.55;74.60;97931.72;5027163;28;19932;-61
2023/09/11 06:08:57;;;;;;;;;;;;;;;19.57;74.61;97932.13;5021119;28;20024;-61
2023/09/11 06:11:25;;;;;;;;;;;;;;;19.60;74.37;97927.84;5032284;28;20243;-61
2023/09/11 06:13:53;;;;;;;;;;;;;;;19.65;74.54;97933.06;5022254;28;19925;-61
2023/09/11 06:16:20;;;;;;;;;;;;;;;19.69;74.42;97936.69;5018074;28;19932;-61
2023/09/11 06:18:49;;;;;;;;;;;;;;;19.70;74.42;97935.50;5031507;28;19932;-61
2023/09/11 06:21:18;;;;;;;;;;;;;;;19.69;74.38;97933.13;5030222;28;19926;-60
2023/09/11 06:23:47;;;;;;;;;;;;;;;19.70;74.35;97941.00;5008795;28;19941;-60
2023/09/11 06:26:15;;;;;;;;;;;;;;;19.73;74.42;97934.78;5027323;28;19929;-60
2023/09/11 06:28:42;;;;;;;;;;;;;;;19.78;74.31;97939.19;5027993;28;19926;-60
2023/09/11 06:31:10;;;;;;;;;;;;;;;19.82;74.27;97937.28;5022126;28;19948;-60
2023/09/11 06:33:38;;;;;;;;;;;;;;;19.86;74.55;97932.59;5027013;28;19929;-60
2023/09/11 06:36:06;;;;;;;;;;;;;;;19.89;74.62;97938.16;5026485;28;19936;-60
2023/09/11 06:38:35;;;;;;;;;;;;;;;19.95;74.23;97937.84;5029932;28;20264;-60
2023/09/11 06:41:03;;;;;;;;;;;;;;;19.97;73.97;97932.72;5024799;28;19932;-59
2023/09/11 06:43:31;;;;;;;;;;;;;;;20.02;74.20;97929.66;5024986;28;19925;-60
2023/09/11 06:45:59;;;;;;;;;;;;;;;20.06;73.61;97936.03;5015173;28;19926;-60
2023/09/11 06:48:27;;;;;;;;;;;;;;;20.12;73.48;97934.53;5022007;28;19933;-61
2023/09/11 06:50:54;;;;;;;;;;;;;;;20.14;73.04;97934.97;5020939;28;19928;-60
2023/09/11 06:53:23;;;;;;;;;;;;;;;20.21;73.39;97943.31;5025540;28;19925;-61
2023/09/11 06:55:53;;;;;;;;;;;;;;;20.24;73.10;97939.84;5025220;28;19926;-60
2023/09/11 06:58:20;;;;;;;;;;;;;;;20.28;72.98;97935.13;5018746;28;20452;-60
2023/09/11 07:00:50;;;;;;;;;;;;;;;20.36;73.04;97942.34;5015416;28;19932;-60
2023/09/11 07:03:19;;;;;;;;;;;;;;;20.40;72.72;97940.44;5025578;28;19932;-60
2023/09/11 07:05:51;;;;;;;;;;;;;;;20.46;72.72;97938.16;5027060;28;19932;-60
2023/09/11 07:08:19;;;;;;;;;;;;;;;20.50;72.35;97938.19;5024479;28;19925;-60
2023/09/11 07:10:50;;;;;;;;;;;;;;;20.57;72.62;97941.03;5019704;28;19979;-60
2023/09/11 07:13:19;;;;;;;;;;;;;;;20.64;72.38;97941.13;5024336;28;20739;-60
2023/09/11 07:15:54;;;;;;;;;;;;;;;20.71;72.28;97935.66;5020781;28;19936;-60
2023/09/11 07:18:22;;;;;;;;;;;;;;;20.77;72.01;97938.88;5029402;28;19936;-60
2023/09/11 07:20:51;;;;;;;;;;;;;;;20.83;72.34;97943.72;5027908;28;19925;-60
2023/09/11 07:23:19;;;;;;;;;;;;;;;20.89;72.09;97935.88;5030206;28;19932;-60
2023/09/11 07:25:46;;;;;;;;;;;;;;;20.91;71.81;97939.84;5029390;28;20101;-58
2023/09/11 07:28:14;;;;;;;;;;;;;;;20.93;71.51;97943.03;5020171;28;19979;-58
2023/09/11 07:30:44;;;;;;;;;;;;;;;21.02;71.65;97934.41;5020219;28;19929;-59
2023/09/11 07:33:12;;;;;;;;;;;;;;;21.10;71.27;97938.06;5024881;28;19936;-59
2023/09/11 07:35:40;;;;;;;;;;;;;;;21.11;71.02;97936.88;5027861;28;19929;-59
2023/09/11 07:38:08;;;;;;;;;;;;;;;21.15;70.80;97934.97;5026148;28;19925;-60
2023/09/11 07:40:41;;;;;;;;;;;;;;;21.22;71.30;97935.00;5023366;28;19925;-61
2023/09/11 07:43:11;;;;;;;;;;;;;;;21.26;71.25;97927.56;5027855;28;19929;-59
2023/09/11 07:45:38;;;;;;;;;;;;;;;21.32;71.15;97928.81;5010667;28;20906;-59
2023/09/11 07:48:07;;;;;;;;;;;;;;;21.39;71.50;97923.34;5024173;28;20303;-59
2023/09/11 07:50:36;;;;;;;;;;;;;;;21.48;71.16;97930.53;5028232;28;19932;-59
2023/09/11 07:53:03;;;;;;;;;;;;;;;21.53;71.38;97932.94;5027297;28;20382;-59
2023/09/11 07:55:31;;;;;;;;;;;;;;;21.59;71.00;97925.88;5029480;28;20359;-60
2023/09/11 07:57:59;;;;;;;;;;;;;;;21.63;70.64;97926.69;5029175;28;19965;-59
2023/09/11 08:00:30;;;;;;;;;;;;;;;21.67;70.39;97925.53;5010883;28;19952;-60
2023/09/11 08:02:58;;;;;;;;;;;;;;;21.69;70.30;97925.16;5024931;28;19925;-60
2023/09/11 08:05:27;;;;;;;;;;;;;;;21.72;70.05;97924.38;5023621;28;19994;-59
2023/09/11 08:07:55;;;;;;;;;;;;;;;21.78;69.62;97928.34;5029594;28;19925;-60
2023/09/11 08:10:23;;;;;;;;;;;;;;;21.84;69.47;97928.78;5022419;28;19925;-59
2023/09/11 08:12:50;;;;;;;;;;;;;;;21.89;69.71;97925.66;5027625;28;19936;-60
2023/09/11 08:15:18;;;;;;;;;;;;;;;21.94;69.62;97923.34;5016687;28;20322;-60
2023/09/11 08:17:46;;;;;;;;;;;;;;;22.00;69.64;97925.72;5022650;28;19990;-60
2023/09/11 08:20:14;;;;;;;;;;;;;;;22.06;69.38;97916.69;5024701;28;19925;-60
2023/09/11 08:22:44;;;;;;;;;;;;;;;22.12;69.29;97922.69;5025604;28;20012;-60
2023/09/11 08:25:13;;;;;;;;;;;;;;;22.18;69.16;97921.13;5025364;28;20289;-60
2023/09/11 08:27:41;;;;;;;;;;;;;;;22.23;68.89;97924.31;5024822;28;19925;-60
2023/09/11 08:30:09;;;;;;;;;;;;;;;22.28;68.87;97923.16;5020843;28;19955;-61
2023/09/11 08:32:37;;;;;;;;;;;;;;;22.33;68.42;97925.56;5027994;28;19926;-61
2023/09/11 08:35:05;;;;;;;;;;;;;;;22.39;68.86;97924.00;5023017;28;19925;-62
2023/09/11 08:37:33;;;;;;;;;;;;;;;22.44;68.64;97920.06;5028257;28;19929;-62
2023/09/11 08:40:03;;;;;;;;;;;;;;;22.51;68.37;97922.06;5009210;28;19925;-62
2023/09/11 08:42:30;;;;;;;;;;;;;;;22.55;68.41;97926.44;5027200;28;20305;-62
2023/09/11 08:44:58;;;;;;;;;;;;;;;22.61;68.22;97930.41;5028039;28;19960;-60
2023/09/11 08:47:29;;;;;;;;;;;;;;;22.64;67.63;97920.53;5024102;28;19925;-61
2023/09/11 08:49:58;;;;;;;;;;;;;;;22.67;67.06;97917.75;5032176;28;20466;-61
2023/09/11 08:52:26;;;;;;;;;;;;;;;22.73;66.67;97924.50;5028045;28;20509;-61
2023/09/11 08:54:54;;;;;;;;;;;;;;;22.80;66.86;97915.44;5024800;28;19955;-61
2023/09/11 08:57:27;;;;;;;;;;;;;;;22.83;67.05;97925.72;5028155;28;20410;-61
2023/09/11 08:59:57;;;;;;;;;;;;;;;22.89;66.57;97923.38;5030804;28;19948;-61
2023/09/11 09:02:25;;;;;;;;;;;;;;;22.91;65.91;97919.03;5023987;28;19929;-61
2023/09/11 09:04:53;;;;;;;;;;;;;;;22.95;65.31;97921.81;5027224;28;19932;-62
2023/09/11 09:07:21;;;;;;;;;;;;;;;22.99;65.47;97920.63;5027271;28;19929;-62
2023/09/11 09:09:48;;;;;;;;;;;;;;;23.11;64.12;97915.88;5028714;28;19925;-61
2023/09/11 09:12:16;;;;;;;;;;;;;;;23.15;64.33;97920.25;5030859;28;19929;-62
2023/09/11 09:14:48;;;;;;;;;;;;;;;23.19;63.77;97918.28;5028237;28;19929;-61
2023/09/11 09:17:16;;;;;;;;;;;;;;;23.21;64.32;97918.66;5028302;28;20337;-60
2023/09/11 09:19:44;;;;;;;;;;;;;;;23.25;64.05;97910.38;5030671;28;20291;-62
2023/09/11 09:22:13;;;;;;;;;;;;;;;23.30;63.62;97909.97;5028548;28;19979;-61
2023/09/11 09:24:48;;;;;;;;;;;;;;;23.31;63.21;97908.00;5027145;28;20294;-61
2023/09/11 09:27:15;;;;;;;;;;;;;;;23.35;63.83;97906.03;5032372;28;19925;-60
2023/09/11 09:29:43;;;;;;;;;;;;;;;23.39;63.55;97902.06;5033775;28;19952;-62
2023/09/11 09:32:12;;;;;;;;;;;;;;;23.45;63.42;97906.03;5010571;28;20343;-62
2023/09/11 09:34:43;;;;;;;;;;;;;;;23.51;63.02;97890.56;5033444;28;20437;-63
2023/09/11 09:37:15;;;;;;;;;;;;;;;23.58;62.32;97888.97;5027500;28;20532;-61
2023/09/11 09:39:42;;;;;;;;;;;;;;;23.60;62.91;97883.84;5028298;28;19933;-60
2023/09/11 09:42:12;;;;;;;;;;;;;;;23.64;62.52;97882.63;5030368;28;19970;-61
2023/09/11 09:44:42;;;;;;;;;;;;;;;23.65;62.12;97877.88;5031869;28;19933;-61
2023/09/11 09:47:10;;;;;;;;;;;;;;;23.68;62.60;97875.09;5021477;28;20378;-61
2023/09/11 09:49:44;;;;;;;;;;;;;;;23.72;62.52;97870.34;5032374;28;20287;-60
2023/09/11 09:52:13;;;;;;;;;;;;;;;23.73;61.68;97874.72;5021673;28;19952;-62
2023/09/11 09:54:41;;;;;;;;;;;;;;;23.74;61.49;97870.75;5027390;28;19925;-62
2023/09/11 09:57:10;;;;;;;;;;;;;;;23.78;62.27;97868.75;5033453;28;19932;-61
2023/09/11 09:59:41;;;;;;;;;;;;;;;23.84;61.30;97865.56;5030197;28;20374;-60
2023/09/11 10:02:09;;;;;;;;;;;;;;;23.85;61.59;97862.38;5035576;28;20008;-63
2023/09/11 10:04:37;;;;;;;;;;;;;;;23.88;62.07;97864.38;5027991;28;19971;-61
2023/09/11 10:07:06;;;;;;;;;;;;;;;23.94;61.96;97853.66;5022925;28;19925;-61
2023/09/11 10:09:34;;;;;;;;;;;;;;;24.01;61.33;97854.41;5024065;28;19940;-60
2023/09/11 10:12:04;;;;;;;;;;;;;;;24.08;60.37;97859.16;5031112;28;19925;-60
2023/09/11 10:14:32;;;;;;;;;;;;;;;24.13;60.83;97846.81;5021649;28;19936;-60
2023/09/11 10:17:00;;;;;;;;;;;;;;;24.17;61.29;97851.19;5016339;28;19930;-60
2023/09/11 10:19:29;;;;;;;;;;;;;;;24.21;62.08;97851.97;5030235;28;19968;-59
2023/09/11 10:21:56;;;;;;;;;;;;;;;24.22;61.45;97847.19;5025349;28;19932;-61
2023/09/11 10:24:25;;;;;;;;;;;;;;;24.24;61.15;97850.38;5013400;28;20357;-60
2023/09/11 10:26:54;;;;;;;;;;;;;;;24.29;60.54;97847.97;5029229;28;19925;-60
2023/09/11 10:29:22;;;;;;;;;;;;;;;24.37;60.30;97842.41;5029198;28;19925;-60
2023/09/11 10:31:52;;;;;;;;;;;;;;;24.39;59.70;97843.56;5012757;28;20471;-60
2023/09/11 10:34:20;;;;;;;;;;;;;;;24.44;60.75;97848.69;5026566;28;19933;-61
2023/09/11 10:36:51;;;;;;;;;;;;;;;24.44;60.21;97836.81;5030039;28;19948;-60
2023/09/11 10:39:18;;;;;;;;;;;;;;;24.45;60.37;97843.94;5025559;28;19925;-60
2023/09/11 10:41:47;;;;;;;;;;;;;;;24.44;59.44;97843.16;5025482;28;20395;-60
2023/09/11 10:44:16;;;;;;;;;;;;;;;24.50;60.25;97830.44;5028245;28;19925;-60
2023/09/11 10:46:48;;;;;;;;;;;;;;;24.49;59.67;97831.63;5021397;28;20325;-61
2023/09/11 10:49:16;;;;;;;;;;;;;;;24.49;59.80;97828.84;5023017;28;20349;-60
2023/09/11 10:51:43;;;;;;;;;;;;;;;24.54;60.03;97822.06;5027549;28;20375;-60
2023/09/11 10:54:11;;;;;;;;;;;;;;;24.53;59.73;97826.03;5028969;28;19929;-60
2023/09/11 10:56:39;;;;;;;;;;;;;;;24.60;58.56;97817.66;5029816;28;20279;-60
2023/09/11 10:59:08;;;;;;;;;;;;;;;24.64;59.11;97820.44;5026626;28;19958;-60
2023/09/11 11:01:36;;;;;;;;;;;;;;;24.62;58.88;97817.28;5018804;28;19995;-60
2023/09/11 11:04:04;;;;;;;;;;;;;;;24.66;58.90;97804.13;5028438;28;20395;-60
2023/09/11 11:06:33;;;;;;;;;;;;;;;24.73;60.49;97810.44;5025338;28;19929;-61
2023/09/11 11:09:02;;;;;;;;;;;;;;;24.75;59.49;97808.03;5018834;28;21319;-61
2023/09/11 11:11:30;;;;;;;;;;;;;;;24.81;60.52;97813.94;5023407;28;19948;-61
2023/09/11 11:14:12;;;;;;;;;;;;;;;24.88;60.40;97811.13;5025690;28;20097;-60
2023/09/11 11:16:40;;;;;;;;;;;;;;;24.87;58.79;97803.97;5017245;28;19940;-61
2023/09/11 11:19:08;;;;;;;;;;;;;;;24.83;58.34;97806.81;5021131;28;20005;-62
2023/09/11 11:21:39;;;;;;;;;;;;;;;24.79;58.09;97803.25;5023662;28;19925;-60
2023/09/11 11:24:09;;;;;;;;;;;;;;;24.81;59.26;97800.06;5027813;28;19933;-62
2023/09/11 11:26:37;;;;;;;;;;;;;;;24.82;58.44;97807.19;5022188;28;19929;-62
2023/09/11 11:29:05;;;;;;;;;;;;;;;24.81;58.38;97805.59;5024079;28;19932;-60
2023/09/11 11:31:34;;;;;;;;;;;;;;;24.84;58.51;97799.25;5018620;28;19925;-62
2023/09/11 11:34:04;;;;;;;;;;;;;;;24.90;58.69;97803.16;5025533;28;19929;-60
2023/09/11 11:36:32;;;;;;;;;;;;;;;24.95;58.36;97801.94;5025874;28;20529;-62
2023/09/11 11:38:59;;;;;;;;;;;;;;;24.98;58.09;97803.88;5027222;28;19979;-62
2023/09/11 11:41:29;;;;;;;;;;;;;;;25.00;56.02;97795.94;5030709;28;19932;-62
2023/09/11 11:43:56;;;;;;;;;;;;;;;25.09;57.04;97793.53;5031218;28;19925;-62
2023/09/11 11:46:28;;;;;;;;;;;;;;;25.12;57.25;97797.47;5025794;28;19925;-62
2023/09/11 11:48:57;;;;;;;;;;;;;;;25.12;57.24;97800.25;5030687;28;19925;-63
2023/09/11 11:51:28;;;;;;;;;;;;;;;25.10;57.06;97799.88;5028177;28;19932;-62
2023/09/11 11:53:56;;;;;;;;;;;;;;;25.05;57.11;97799.06;5022336;28;19931;-60
2023/09/11 11:56:24;;;;;;;;;;;;;;;25.07;57.36;97796.69;5024559;28;19948;-62
2023/09/11 11:58:54;;;;;;;;;;;;;;;25.09;56.84;97793.53;5029632;28;21338;-60
2023/09/11 12:01:21;;;;;;;;;;;;;;;25.11;57.22;97793.91;5027727;28;19925;-60
2023/09/11 12:03:50;;;;;;;;;;;;;;;25.14;56.91;97789.50;5025451;28;19940;-63
2023/09/11 12:06:19;;;;;;;;;;;;;;;25.17;57.38;97794.25;5030070;28;19925;-61
2023/09/11 12:08:47;;;;;;;;;;;;;;;25.13;57.32;97788.69;5024548;28;19925;-61
2023/09/11 12:11:15;;;;;;;;;;;;;;;25.13;57.08;97787.91;5028059;28;19937;-62
2023/09/11 12:13:43;;;;;;;;;;;;;;;25.19;56.95;97786.25;5015556;28;19925;-61
2023/09/11 12:16:17;;;;;;;;;;;;;;;25.25;56.08;97779.88;5026795;28;20505;-61
2023/09/11 12:18:46;;;;;;;;;;;;;;;25.26;55.95;97777.88;5028391;28;19932;-60
2023/09/11 12:21:13;;;;;;;;;;;;;;;25.33;55.84;97780.56;5030009;28;20497;-61
2023/09/11 12:23:43;;;;;;;;;;;;;;;25.32;56.21;97779.00;5026989;28;19936;-60
2023/09/11 12:26:10;;;;;;;;;;;;;;;25.23;56.47;97782.25;5030441;28;19925;-60
2023/09/11 12:28:38;;;;;;;;;;;;;;;25.18;57.09;97776.34;5021306;28;19929;-62
2023/09/11 12:31:06;;;;;;;;;;;;;;;25.18;57.21;97773.56;5025483;28;20402;-62
2023/09/11 12:33:35;;;;;;;;;;;;;;;25.20;56.85;97773.97;5025579;28;20382;-62
2023/09/11 12:36:04;;;;;;;;;;;;;;;25.22;56.76;97769.56;5030987;28;19983;-62
2023/09/11 12:38:33;;;;;;;;;;;;;;;25.20;57.00;97765.63;5016888;28;19925;-62
2023/09/11 12:41:04;;;;;;;;;;;;;;;25.24;56.59;97769.94;5030107;28;19925;-62
2023/09/11 12:43:31;;;;;;;;;;;;;;;25.27;56.83;97760.78;5030326;28;19940;-62
2023/09/11 12:46:00;;;;;;;;;;;;;;;25.39;56.43;97758.66;5025320;28;19925;-62
2023/09/11 12:48:28;;;;;;;;;;;;;;;25.40;55.80;97758.25;5030059;28;20379;-62
2023/09/11 12:50:56;;;;;;;;;;;;;;;25.40;55.07;97755.47;5028900;28;19932;-62
2023/09/11 12:53:24;;;;;;;;;;;;;;;25.43;55.50;97757.44;5029641;28;20370;-63
2023/09/11 12:55:52;;;;;;;;;;;;;;;25.52;54.88;97752.19;5023181;28;19929;-62